createdAt,value
2022-12-23T00:04:18.720Z,10.23
2022-12-23T00:09:20.139Z,10.29
2022-12-23T00:14:40.015Z,10.26
2022-12-23T00:19:41.399Z,10.32
2022-12-23T00:24:42.778Z,10.33
2022-12-23T00:29:44.117Z,10.29
2022-12-23T00:34:45.421Z,10.36
2022-12-23T00:40:06.910Z,10.35
2022-12-23T00:45:17.983Z,10.21
2022-12-23T00:50:19.284Z,10.21
2022-12-23T00:55:21.156Z,10.29
2022-12-23T01:00:43.031Z,10.29
2022-12-23T01:05:44.411Z,10.37
2022-12-23T01:10:45.784Z,10.27
2022-12-23T01:15:47.560Z,10.22
2022-12-23T01:20:48.943Z,10.26
2022-12-23T01:25:57.497Z,10.26
2022-12-23T01:31:00.897Z,10.23
2022-12-23T01:36:03.805Z,10.27
2022-12-23T01:41:05.307Z,10.24
2022-12-23T01:46:06.715Z,10.34
2022-12-23T01:51:16.700Z,10.42
2022-12-23T01:56:26.666Z,10.35
2022-12-23T02:01:48.361Z,10.34
2022-12-23T02:07:10.010Z,10.33
2022-12-23T02:12:29.988Z,10.42
2022-12-23T02:17:38.296Z,10.39
2022-12-23T02:23:17.499Z,10.41
2022-12-23T02:28:52.264Z,10.39
2022-12-23T02:34:21.364Z,10.37
2022-12-23T02:39:39.469Z,10.41
2022-12-23T02:44:45.587Z,10.48
2022-12-23T02:49:57.476Z,10.45
2022-12-23T02:55:03.081Z,10.47
2022-12-23T03:00:06.362Z,10.52
2022-12-23T03:05:39.536Z,10.60
2022-12-23T03:10:55.284Z,10.61
2022-12-23T03:16:13.450Z,10.55
2022-12-23T03:21:24.420Z,10.49
2022-12-23T03:26:41.519Z,10.43
2022-12-23T03:31:44.250Z,10.34
2022-12-23T03:36:52.462Z,10.24
2022-12-23T03:42:04.706Z,10.26
2022-12-23T03:47:12.283Z,10.25
2022-12-23T03:52:22.470Z,10.21
2022-12-23T03:57:36.409Z,10.25
2022-12-23T04:03:10.254Z,10.19
2022-12-23T04:08:18.896Z,10.21
2022-12-23T04:13:20.417Z,10.11
2022-12-23T04:18:21.726Z,10.07
2022-12-23T04:23:23.231Z,9.99
2022-12-23T04:28:24.673Z,10.00
2022-12-23T04:33:26.123Z,9.98
2022-12-23T04:38:27.465Z,9.90
2022-12-23T04:43:28.891Z,9.83
2022-12-23T04:48:30.619Z,9.73
2022-12-23T04:53:32.149Z,9.76
2022-12-23T04:58:33.516Z,9.76
2022-12-23T05:03:35.140Z,9.71
2022-12-23T05:08:36.587Z,9.70
2022-12-23T05:13:38.033Z,9.62
2022-12-23T05:18:39.391Z,9.55
2022-12-23T05:23:40.794Z,9.61
2022-12-23T05:28:45.520Z,9.63
2022-12-23T05:33:46.861Z,9.60
2022-12-23T05:38:48.391Z,9.62
2022-12-23T05:43:49.690Z,9.72
2022-12-23T05:48:51.020Z,9.79
2022-12-23T05:53:52.475Z,9.72
2022-12-23T05:58:54.080Z,9.70
2022-12-23T06:03:55.953Z,9.72
2022-12-23T06:09:00.749Z,9.73
2022-12-23T06:14:02.729Z,9.64
2022-12-23T06:19:04.285Z,9.51
2022-12-23T06:24:06.291Z,9.46
2022-12-23T06:29:07.624Z,9.47
2022-12-23T06:34:09.044Z,9.41
2022-12-23T06:39:11.839Z,9.36
2022-12-23T06:44:13.209Z,9.44
2022-12-23T06:49:14.550Z,9.48
2022-12-23T06:54:15.915Z,9.63
2022-12-23T06:59:17.282Z,9.83
2022-12-23T07:04:19.029Z,9.79
2022-12-23T07:09:20.422Z,9.86
2022-12-23T07:14:21.910Z,9.91
2022-12-23T07:19:23.995Z,10.03
2022-12-23T07:24:25.302Z,10.06
2022-12-23T07:29:26.642Z,10.09
2022-12-23T07:34:28.073Z,10.18
2022-12-23T07:39:29.439Z,10.15
2022-12-23T07:44:30.811Z,10.13
2022-12-23T07:49:32.348Z,10.13
2022-12-23T07:54:33.683Z,10.15
2022-12-23T07:59:35.288Z,10.17
2022-12-23T08:04:42.568Z,10.24
2022-12-23T08:09:47.048Z,10.35
2022-12-23T08:14:48.775Z,10.32
2022-12-23T08:19:50.230Z,10.23
2022-12-23T08:24:52.677Z,10.41
2022-12-23T08:29:54.106Z,10.49
2022-12-23T08:34:57.470Z,10.57
2022-12-23T08:40:00.186Z,10.61
2022-12-23T08:45:01.697Z,10.69
2022-12-23T08:50:03.997Z,10.69
2022-12-23T08:55:05.836Z,10.71
2022-12-23T09:00:07.975Z,10.81
2022-12-23T09:05:09.330Z,10.91
2022-12-23T09:10:11.090Z,10.86
2022-12-23T09:15:12.486Z,10.89
2022-12-23T09:20:13.815Z,10.95
2022-12-23T09:25:15.597Z,10.99
2022-12-23T09:30:17.023Z,10.97
2022-12-23T09:35:18.487Z,11.10
2022-12-23T09:40:21.375Z,11.12
2022-12-23T09:45:41.144Z,11.11
2022-12-23T09:50:43.642Z,11.10
2022-12-23T09:56:00.330Z,11.07
2022-12-23T10:01:15.997Z,11.06
2022-12-23T10:06:25.276Z,11.06
2022-12-23T10:11:31.761Z,10.93
2022-12-23T10:16:39.731Z,10.87
2022-12-23T10:21:47.967Z,10.85
2022-12-23T10:27:10.643Z,10.69
2022-12-23T10:32:44.552Z,10.72
2022-12-23T10:37:54.043Z,10.77
2022-12-23T10:42:55.319Z,10.90
2022-12-23T10:48:35.341Z,10.93
2022-12-23T10:53:47.176Z,10.90
2022-12-23T10:58:57.733Z,10.87
2022-12-23T11:04:16.189Z,10.87
2022-12-23T11:09:24.979Z,10.86
2022-12-23T11:14:52.562Z,10.88
2022-12-23T11:20:06.212Z,10.90
2022-12-23T11:25:36.746Z,10.89
2022-12-23T11:30:55.575Z,10.86
2022-12-23T11:36:02.442Z,10.89
2022-12-23T11:41:05.331Z,10.93
2022-12-23T11:46:16.038Z,10.94
2022-12-23T11:51:25.034Z,10.96
2022-12-23T11:56:27.376Z,10.98
2022-12-23T12:01:28.989Z,11.08
2022-12-23T12:06:32.452Z,11.10
2022-12-23T12:11:44.584Z,11.07
2022-12-23T12:17:23.115Z,11.07
2022-12-23T12:23:06.603Z,10.95
2022-12-23T12:28:18.034Z,10.78
2022-12-23T12:33:26.987Z,10.91
2022-12-23T12:38:34.905Z,11.00
2022-12-23T12:43:46.301Z,11.05
2022-12-23T12:49:00.952Z,10.95
2022-12-23T12:54:05.495Z,11.07
2022-12-23T12:59:11.805Z,11.11
2022-12-23T13:04:31.665Z,11.17
2022-12-23T13:09:50.567Z,11.12
2022-12-23T13:15:23.432Z,11.15
2022-12-23T13:20:38.155Z,11.16
2022-12-23T13:25:44.452Z,11.15
2022-12-23T13:30:59.753Z,11.13
2022-12-23T13:36:16.718Z,11.20
2022-12-23T13:42:04.643Z,11.21
2022-12-23T13:47:45.356Z,11.22
2022-12-23T13:53:01.642Z,11.14
2022-12-23T13:58:13.214Z,11.19
2022-12-23T14:03:23.647Z,11.21
2022-12-23T14:08:40.642Z,11.20
2022-12-23T14:13:51.627Z,11.16
2022-12-23T14:19:29.976Z,11.10
2022-12-23T14:25:04.759Z,11.20
2022-12-23T14:30:16.631Z,11.24
2022-12-23T14:35:47.024Z,11.23
2022-12-23T14:41:13.073Z,11.22
2022-12-23T14:46:36.454Z,11.25
2022-12-23T14:51:39.989Z,11.29
2022-12-23T14:56:41.899Z,11.30
2022-12-23T15:02:09.548Z,11.30
2022-12-23T15:07:20.969Z,11.32
2022-12-23T15:12:31.580Z,11.29
2022-12-23T15:17:36.081Z,11.34
2022-12-23T15:22:38.394Z,11.37
2022-12-23T15:27:40.072Z,11.35
2022-12-23T15:32:44.832Z,11.44
2022-12-23T15:37:49.883Z,11.54
2022-12-23T15:42:51.387Z,11.55
2022-12-23T15:47:52.866Z,11.39
2022-12-23T15:52:56.147Z,11.32
2022-12-23T15:57:59.454Z,11.42
2022-12-23T16:03:03.308Z,11.44
2022-12-23T16:08:10.689Z,11.51
2022-12-23T16:13:17.950Z,11.52
2022-12-23T16:18:19.436Z,11.54
2022-12-23T16:23:22.058Z,11.62
2022-12-23T16:28:29.827Z,11.62
2022-12-23T16:33:38.622Z,11.63
2022-12-23T16:38:40.129Z,11.53
2022-12-23T16:43:47.671Z,11.59
2022-12-23T16:48:57.639Z,11.60
2022-12-23T16:53:59.926Z,11.71
2022-12-23T16:59:01.575Z,11.80
2022-12-23T17:04:03.356Z,11.92
2022-12-23T17:09:06.242Z,11.94
2022-12-23T17:14:15.886Z,11.88
2022-12-23T17:19:23.408Z,11.69
2022-12-23T17:24:30.204Z,11.74
2022-12-23T17:29:31.919Z,11.72
2022-12-23T17:34:33.396Z,11.78
2022-12-23T17:39:34.774Z,11.84
2022-12-23T17:44:36.230Z,11.86
2022-12-23T17:49:37.621Z,11.80
2022-12-23T17:54:39.083Z,11.78
2022-12-23T17:59:40.893Z,11.79
2022-12-23T18:04:42.272Z,11.78
2022-12-23T18:09:43.998Z,11.82
2022-12-23T18:14:45.624Z,11.80
2022-12-23T18:19:47.286Z,11.72
2022-12-23T18:24:53.807Z,11.68
2022-12-23T18:29:58.502Z,11.65
2022-12-23T18:34:59.953Z,11.65
2022-12-23T18:40:01.340Z,11.65
2022-12-23T18:45:02.682Z,11.66
2022-12-23T18:50:04.443Z,11.70
2022-12-23T18:55:07.136Z,11.75
2022-12-23T19:00:15.860Z,11.80
2022-12-23T19:05:28.701Z,11.78
2022-12-23T19:10:39.682Z,11.79
2022-12-23T19:15:42.902Z,11.79
2022-12-23T19:20:45.793Z,11.78
2022-12-23T19:25:54.427Z,11.82
2022-12-23T19:30:56.268Z,11.82
2022-12-23T19:35:57.982Z,11.78
2022-12-23T19:40:59.591Z,11.77
2022-12-23T19:46:03.734Z,11.74
2022-12-23T19:51:11.187Z,11.83
2022-12-23T19:56:15.259Z,11.82
2022-12-23T20:01:19.999Z,11.81
2022-12-23T20:06:28.155Z,11.85
2022-12-23T20:11:33.263Z,11.90
2022-12-23T20:16:35.121Z,11.89
2022-12-23T20:21:37.557Z,11.94
2022-12-23T20:26:39.382Z,11.97
2022-12-23T20:31:40.928Z,12.09
2022-12-23T20:36:42.461Z,12.06
2022-12-23T20:41:43.952Z,12.13
2022-12-23T20:46:45.386Z,12.05
2022-12-23T20:51:47.329Z,12.01
2022-12-23T20:56:48.615Z,11.93
2022-12-23T21:01:50.088Z,11.95
2022-12-23T21:06:51.472Z,11.93
2022-12-23T21:11:52.950Z,11.96
2022-12-23T21:16:55.413Z,11.93
2022-12-23T21:21:56.830Z,11.93
2022-12-23T21:26:58.177Z,11.86
2022-12-23T21:32:00.483Z,11.84
2022-12-23T21:37:02.042Z,11.78
2022-12-23T21:42:03.852Z,11.74
2022-12-23T21:47:05.263Z,11.75
2022-12-23T21:52:06.676Z,11.77
2022-12-23T21:57:08.081Z,11.78
2022-12-23T22:02:15.916Z,11.76
2022-12-23T22:07:17.317Z,11.77
2022-12-23T22:12:18.689Z,11.68
2022-12-23T22:17:20.013Z,11.65
2022-12-23T22:22:21.424Z,11.68
2022-12-23T22:27:22.776Z,11.69
2022-12-23T22:32:24.135Z,11.65
2022-12-23T22:37:25.513Z,11.61
2022-12-23T22:42:26.810Z,11.60
2022-12-23T22:47:28.240Z,11.59
2022-12-23T22:52:29.785Z,11.52
2022-12-23T22:57:31.279Z,11.52
2022-12-23T23:02:32.645Z,11.51
2022-12-23T23:07:34.143Z,11.49
2022-12-23T23:12:35.569Z,11.57
2022-12-23T23:17:36.869Z,11.61
2022-12-23T23:22:38.573Z,11.67
2022-12-23T23:27:39.952Z,11.72
2022-12-23T23:32:41.434Z,11.76
2022-12-23T23:37:42.815Z,11.66
2022-12-23T23:42:44.188Z,11.72
2022-12-23T23:47:45.974Z,11.63
2022-12-23T23:52:47.448Z,11.58
2022-12-23T23:57:48.818Z,11.46
